createdAt,value
2018-04-12T00:00:02.532Z,21.67
2018-04-12T00:02:31.024Z,27.97
2018-04-12T00:04:59.510Z,23.33
2018-04-12T00:07:27.957Z,22.00
2018-04-12T00:09:56.500Z,24.60
2018-04-12T00:12:24.964Z,23.17
2018-04-12T00:14:53.426Z,23.67
2018-04-12T00:17:21.948Z,23.57
2018-04-12T00:19:50.453Z,24.50
2018-04-12T00:22:18.944Z,24.67
2018-04-12T00:24:47.460Z,26.30
2018-04-12T00:27:15.949Z,23.73
2018-04-12T00:29:44.468Z,31.47
2018-04-12T00:32:12.993Z,24.37
2018-04-12T00:34:41.520Z,26.23
2018-04-12T00:37:10.042Z,26.63
2018-04-12T00:39:38.514Z,23.40
2018-04-12T00:42:06.984Z,26.43
2018-04-12T00:44:35.496Z,25.87
2018-04-12T00:47:03.986Z,29.13
2018-04-12T00:49:32.481Z,28.90
2018-04-12T00:52:00.941Z,27.03
2018-04-12T00:54:29.466Z,24.20
2018-04-12T00:56:57.947Z,26.67
2018-04-12T00:59:26.458Z,21.23
2018-04-12T01:01:54.921Z,26.93
2018-04-12T01:04:23.429Z,22.43
2018-04-12T01:06:51.895Z,20.37
2018-04-12T01:09:20.415Z,22.00
2018-04-12T01:11:48.912Z,20.33
2018-04-12T01:14:17.441Z,19.23
2018-04-12T01:16:45.937Z,18.90
2018-04-12T01:19:14.480Z,18.90
2018-04-12T01:21:42.994Z,21.03
2018-04-12T01:24:11.500Z,22.00
2018-04-12T01:26:40.052Z,18.57
2018-04-12T01:29:08.513Z,18.90
2018-04-12T01:31:37.020Z,19.53
2018-04-12T01:34:05.539Z,18.07
2018-04-12T01:36:34.052Z,19.00
2018-04-12T01:39:02.558Z,17.93
2018-04-12T01:41:31.052Z,18.83
2018-04-12T01:43:59.504Z,18.13
2018-04-12T01:46:28.000Z,18.40
2018-04-12T01:48:56.470Z,21.40
2018-04-12T01:51:24.980Z,22.63
2018-04-12T01:53:53.492Z,18.97
2018-04-12T01:56:22.032Z,22.13
2018-04-12T01:58:50.515Z,20.40
2018-04-12T02:01:19.028Z,27.30
2018-04-12T02:03:47.493Z,28.77
2018-04-12T02:06:16.004Z,23.70
2018-04-12T02:08:44.490Z,27.90
2018-04-12T02:11:12.953Z,34.07
2018-04-12T02:13:41.452Z,30.47
2018-04-12T02:16:09.954Z,24.80
2018-04-12T02:18:38.476Z,26.70
2018-04-12T02:21:06.977Z,28.03
2018-04-12T02:23:35.498Z,26.67
2018-04-12T02:26:04.004Z,27.20
2018-04-12T02:28:32.489Z,26.87
2018-04-12T02:31:00.999Z,27.23
2018-04-12T02:33:29.501Z,28.90
2018-04-12T02:35:58.001Z,26.83
2018-04-12T02:38:26.493Z,62.37
2018-04-12T02:40:54.965Z,50.30
2018-04-12T02:43:23.456Z,64.37
2018-04-12T02:45:51.961Z,59.63
2018-04-12T02:48:20.432Z,50.57
2018-04-12T02:50:48.936Z,39.10
2018-04-12T02:53:17.404Z,33.20
2018-04-12T02:55:45.901Z,33.67
2018-04-12T02:58:14.444Z,35.57
2018-04-12T03:00:42.905Z,23.23
2018-04-12T03:03:11.396Z,24.53
2018-04-12T03:05:39.864Z,21.57
2018-04-12T03:08:08.364Z,24.27
2018-04-12T03:10:36.826Z,19.23
2018-04-12T03:13:05.388Z,19.70
2018-04-12T03:15:33.833Z,17.47
2018-04-12T03:18:02.304Z,21.57
2018-04-12T03:20:30.859Z,21.07
2018-04-12T03:22:59.340Z,29.90
2018-04-12T03:25:27.848Z,25.70
2018-04-12T03:27:56.312Z,29.57
2018-04-12T03:30:24.803Z,23.47
2018-04-12T03:32:53.320Z,25.63
2018-04-12T03:35:21.788Z,24.27
2018-04-12T03:37:50.266Z,29.00
2018-04-12T03:40:18.727Z,22.60
2018-04-12T03:42:47.220Z,22.87
2018-04-12T03:45:15.682Z,21.27
2018-04-12T03:47:44.188Z,24.33
2018-04-12T03:50:12.684Z,25.10
2018-04-12T03:52:41.135Z,21.77
2018-04-12T03:55:09.649Z,24.53
2018-04-12T03:57:38.161Z,21.60
2018-04-12T04:00:06.728Z,23.10
2018-04-12T04:02:35.245Z,24.13
2018-04-12T04:05:03.753Z,27.10
2018-04-12T04:07:32.212Z,28.07
2018-04-12T04:10:00.724Z,31.77
2018-04-12T04:12:29.260Z,24.67
2018-04-12T04:18:10.651Z,43.03
2018-04-12T04:20:51.145Z,37.97
2018-04-12T04:23:19.648Z,80.43
2018-04-12T04:25:48.141Z,59.20
2018-04-12T04:28:16.604Z,46.23
2018-04-12T04:30:45.136Z,55.27
2018-04-12T04:33:13.611Z,50.13
2018-04-12T04:35:42.085Z,75.83
2018-04-12T04:38:10.601Z,93.67
2018-04-12T04:40:39.089Z,112.33
2018-04-12T04:43:07.604Z,51.27
2018-04-12T04:45:36.130Z,44.37
2018-04-12T04:48:04.623Z,40.90
2018-04-12T04:50:33.265Z,46.77
2018-04-12T04:53:01.771Z,43.00
2018-04-12T04:55:30.241Z,36.33
2018-04-12T04:57:58.851Z,40.63
2018-04-12T05:00:27.744Z,41.77
2018-04-12T05:02:56.558Z,39.10
2018-04-12T05:05:25.096Z,46.33
2018-04-12T05:07:53.600Z,69.23
2018-04-12T05:10:22.277Z,32.73
2018-04-12T05:12:50.796Z,35.23
2018-04-12T05:15:19.533Z,34.87
2018-04-12T05:17:48.084Z,41.20
2018-04-12T05:20:16.584Z,28.93
2018-04-12T05:22:45.102Z,29.40
2018-04-12T05:25:13.653Z,26.50
2018-04-12T05:27:42.128Z,28.50
2018-04-12T05:30:10.632Z,31.70
2018-04-12T05:32:39.132Z,41.60
2018-04-12T05:35:07.609Z,37.57
2018-04-12T05:37:36.168Z,32.57
2018-04-12T05:40:04.681Z,36.67
2018-04-12T05:42:33.151Z,43.47
2018-04-12T05:45:01.657Z,39.13
2018-04-12T05:47:30.181Z,39.47
2018-04-12T05:49:58.715Z,43.67
2018-04-12T05:52:27.192Z,38.53
2018-04-12T05:54:55.705Z,44.30
2018-04-12T05:57:24.204Z,48.83
2018-04-12T05:59:52.662Z,41.40
2018-04-12T06:02:21.173Z,27.87
2018-04-12T06:04:49.676Z,40.17
2018-04-12T06:07:18.278Z,40.77
2018-04-12T06:09:46.761Z,42.53
2018-04-12T06:12:15.286Z,39.20
2018-04-12T06:14:43.761Z,39.50
2018-04-12T06:17:12.225Z,30.53
2018-04-12T06:19:40.773Z,25.93
2018-04-12T06:22:09.261Z,48.57
2018-04-12T06:24:37.772Z,36.87
2018-04-12T06:27:06.238Z,40.60
2018-04-12T06:29:34.775Z,40.07
2018-04-12T06:32:03.237Z,40.50
2018-04-12T06:34:31.786Z,33.53
2018-04-12T06:37:00.261Z,37.20
2018-04-12T06:39:28.741Z,30.57
2018-04-12T06:41:57.232Z,28.53
2018-04-12T06:44:25.700Z,30.87
2018-04-12T06:46:54.206Z,28.13
2018-04-12T06:49:23.605Z,31.23
2018-04-12T06:51:52.115Z,32.60
2018-04-12T06:54:20.631Z,33.17
2018-04-12T06:56:49.117Z,36.57
2018-04-12T06:59:17.636Z,37.93
2018-04-12T07:01:46.117Z,30.33
2018-04-12T07:04:14.632Z,43.10
2018-04-12T07:06:43.136Z,33.10
2018-04-12T07:09:11.742Z,37.97
2018-04-12T07:11:40.265Z,35.03
2018-04-12T07:14:08.789Z,41.13
2018-04-12T07:16:37.295Z,31.17
2018-04-12T07:19:05.797Z,29.73
2018-04-12T07:21:34.287Z,35.20
2018-04-12T07:24:02.775Z,29.17
2018-04-12T07:26:31.299Z,34.37
2018-04-12T07:28:59.776Z,32.70
2018-04-12T07:31:28.253Z,37.70
2018-04-12T07:33:56.784Z,37.30
2018-04-12T07:36:25.258Z,33.10
2018-04-12T07:38:53.775Z,33.37
2018-04-12T07:41:22.273Z,33.67
2018-04-12T07:43:50.800Z,28.30
2018-04-12T07:46:19.321Z,27.40
2018-04-12T07:48:47.776Z,23.93
2018-04-12T07:51:16.278Z,28.07
2018-04-12T07:53:44.768Z,23.87
2018-04-12T07:56:13.273Z,20.23
2018-04-12T07:58:42.800Z,31.47
2018-04-12T08:01:11.427Z,25.37
2018-04-12T08:03:39.949Z,36.43
2018-04-12T08:06:08.464Z,30.17
2018-04-12T08:08:36.983Z,26.63
2018-04-12T08:11:05.536Z,29.27
2018-04-12T08:13:34.004Z,20.87
2018-04-12T08:16:02.570Z,24.33
2018-04-12T08:18:31.058Z,20.10
2018-04-12T08:20:59.532Z,19.93
2018-04-12T08:23:28.044Z,16.13
2018-04-12T08:25:57.273Z,13.83
2018-04-12T08:28:27.075Z,14.07
2018-04-12T08:30:55.692Z,18.33
2018-04-12T08:33:24.181Z,20.77
2018-04-12T08:35:52.681Z,13.07
2018-04-12T08:38:21.164Z,16.83
2018-04-12T08:40:49.667Z,15.57
2018-04-12T08:43:18.142Z,14.43
2018-04-12T08:45:46.653Z,20.27
2018-04-12T08:48:15.145Z,15.37
2018-04-12T08:50:43.682Z,15.77
2018-04-12T08:53:12.218Z,15.17
2018-04-12T08:55:41.351Z,18.57
2018-04-12T08:58:09.856Z,18.80
2018-04-12T09:00:38.341Z,17.37
2018-04-12T09:03:06.977Z,17.13
2018-04-12T09:05:35.456Z,14.57
2018-04-12T09:08:03.916Z,15.37
2018-04-12T09:10:32.569Z,14.60
2018-04-12T09:13:01.032Z,14.47
2018-04-12T09:15:29.515Z,16.83
2018-04-12T09:17:57.977Z,17.13
2018-04-12T09:20:26.480Z,18.20
2018-04-12T09:22:55.004Z,15.73
2018-04-12T09:25:23.477Z,15.60
2018-04-12T09:27:51.949Z,13.67
2018-04-12T09:30:20.471Z,17.07
2018-04-12T09:32:48.981Z,15.63
2018-04-12T09:35:17.497Z,20.53
2018-04-12T09:37:46.047Z,16.37
2018-04-12T09:40:14.543Z,13.33
2018-04-12T09:42:43.072Z,14.13
2018-04-12T09:45:11.597Z,13.87
2018-04-12T09:47:40.083Z,12.10
2018-04-12T09:50:08.594Z,13.70
2018-04-12T09:52:37.093Z,12.50
2018-04-12T09:55:05.583Z,13.60
2018-04-12T09:57:34.123Z,13.07
2018-04-12T10:00:02.715Z,13.83
2018-04-12T10:02:31.232Z,17.00
2018-04-12T10:05:00.544Z,14.70
2018-04-12T10:07:34.658Z,12.67
2018-04-12T10:10:03.137Z,14.10
2018-04-12T10:12:31.637Z,16.40
2018-04-12T10:15:00.139Z,13.50
2018-04-12T10:17:28.675Z,13.43
2018-04-12T10:19:57.226Z,15.73
2018-04-12T10:22:25.706Z,16.27
2018-04-12T10:24:54.228Z,21.40
2018-04-12T10:27:22.726Z,15.17
2018-04-12T10:29:51.201Z,21.93
2018-04-12T10:32:19.759Z,16.60
2018-04-12T10:34:48.322Z,13.47
2018-04-12T10:37:16.783Z,15.73
2018-04-12T10:39:45.301Z,13.67
2018-04-12T10:42:13.757Z,13.33
2018-04-12T10:44:42.252Z,14.40
2018-04-12T10:47:10.801Z,11.97
2018-04-12T10:49:39.269Z,13.13
2018-04-12T10:52:07.796Z,20.07
2018-04-12T10:54:36.249Z,12.07
2018-04-12T10:57:04.787Z,15.50
2018-04-12T10:59:33.277Z,13.13
2018-04-12T11:02:01.788Z,11.13
2018-04-12T11:04:30.293Z,12.50
2018-04-12T11:06:58.803Z,14.40
2018-04-12T11:09:27.260Z,14.10
2018-04-12T11:11:55.718Z,16.23
2018-04-12T11:14:24.274Z,15.73
2018-04-12T11:16:52.740Z,18.27
2018-04-12T11:19:21.215Z,18.20
2018-04-12T11:21:49.744Z,16.60
2018-04-12T11:24:18.298Z,21.00
2018-04-12T11:26:46.780Z,19.07
2018-04-12T11:29:15.306Z,20.57
2018-04-12T11:31:43.836Z,17.67
2018-04-12T11:34:12.388Z,16.53
2018-04-12T11:36:40.906Z,12.47
2018-04-12T11:39:09.402Z,10.60
2018-04-12T11:41:37.900Z,18.87
2018-04-12T11:44:06.420Z,17.13
2018-04-12T11:46:34.956Z,8.40
2018-04-12T11:49:03.425Z,10.50
2018-04-12T11:51:31.904Z,12.03
2018-04-12T11:54:00.423Z,9.33
2018-04-12T11:56:29.039Z,10.90
2018-04-12T11:58:57.548Z,10.17
2018-04-12T12:01:25.993Z,16.10
2018-04-12T12:03:54.496Z,13.40
2018-04-12T12:06:22.989Z,14.87
2018-04-12T12:08:51.589Z,12.00
2018-04-12T12:11:20.132Z,12.17
2018-04-12T12:13:48.601Z,13.73
2018-04-12T12:16:17.072Z,12.87
2018-04-12T12:18:45.598Z,12.50
2018-04-12T12:21:14.141Z,12.17
2018-04-12T12:23:42.698Z,14.20
2018-04-12T12:26:11.197Z,13.60
2018-04-12T12:28:39.668Z,18.43
2018-04-12T12:31:08.161Z,16.03
2018-04-12T12:33:36.652Z,12.60
2018-04-12T12:36:05.212Z,8.20
2018-04-12T12:38:33.760Z,11.03
2018-04-12T12:41:02.228Z,13.47
2018-04-12T12:43:30.738Z,11.27
2018-04-12T12:45:59.205Z,13.17
2018-04-12T12:48:27.692Z,7.40
2018-04-12T12:50:56.201Z,9.03
2018-04-12T12:53:24.690Z,14.50
2018-04-12T12:55:53.207Z,11.03
2018-04-12T12:58:21.740Z,12.80
2018-04-12T13:00:50.197Z,9.90
2018-04-12T13:03:18.657Z,8.37
2018-04-12T13:05:47.204Z,8.23
2018-04-12T13:08:15.712Z,11.40
2018-04-12T13:10:44.212Z,10.93
2018-04-12T13:13:12.755Z,11.83
2018-04-12T13:15:41.255Z,10.17
2018-04-12T13:18:09.725Z,12.43
2018-04-12T13:20:38.298Z,13.20
2018-04-12T13:23:06.800Z,8.63
2018-04-12T13:25:35.300Z,11.33
2018-04-12T13:28:03.913Z,14.03
2018-04-12T13:30:32.502Z,8.27
2018-04-12T13:33:01.077Z,14.17
2018-04-12T13:35:29.594Z,10.27
2018-04-12T13:37:58.081Z,12.47
2018-04-12T13:40:26.597Z,12.43
2018-04-12T13:42:55.112Z,10.63
2018-04-12T13:45:23.614Z,7.70
2018-04-12T13:47:52.160Z,11.03
2018-04-12T13:50:20.649Z,10.10
2018-04-12T13:52:49.164Z,11.63
2018-04-12T13:55:17.692Z,11.30
2018-04-12T13:57:46.202Z,6.60
2018-04-12T14:00:14.713Z,12.80
2018-04-12T14:02:43.165Z,11.33
2018-04-12T14:05:11.625Z,8.87
2018-04-12T14:07:40.113Z,12.17
2018-04-12T14:10:08.670Z,13.97
2018-04-12T14:12:37.141Z,15.93
2018-04-12T14:15:05.657Z,11.87
2018-04-12T14:17:34.125Z,12.73
2018-04-12T14:20:02.608Z,13.97
2018-04-12T14:22:31.069Z,14.03
2018-04-12T14:24:59.568Z,13.30
2018-04-12T14:27:28.001Z,9.93
2018-04-12T14:29:56.513Z,15.67
2018-04-12T14:32:25.029Z,10.87
2018-04-12T14:34:53.521Z,17.57
2018-04-12T14:37:22.039Z,11.73
2018-04-12T14:39:50.509Z,11.07
2018-04-12T14:42:19.013Z,13.70
2018-04-12T14:44:47.509Z,14.53
2018-04-12T14:47:15.988Z,7.37
2018-04-12T14:49:52.431Z,10.27
2018-04-12T14:52:20.904Z,11.03
2018-04-12T14:54:49.403Z,14.10
2018-04-12T14:57:17.892Z,11.00
2018-04-12T14:59:46.377Z,10.50
2018-04-12T15:02:14.821Z,7.73
2018-04-12T15:04:43.313Z,12.10
2018-04-12T15:07:11.834Z,13.03
2018-04-12T15:09:40.299Z,12.80
2018-04-12T15:12:08.792Z,10.20
2018-04-12T15:14:37.244Z,9.40
2018-04-12T15:17:05.727Z,10.30
2018-04-12T15:19:34.215Z,11.37
2018-04-12T15:22:02.676Z,11.47
2018-04-12T15:24:31.128Z,8.97
2018-04-12T15:26:59.638Z,9.53
2018-04-12T15:29:28.169Z,11.67
2018-04-12T15:31:56.626Z,6.70
2018-04-12T15:34:25.107Z,8.13
2018-04-12T15:36:53.610Z,9.30
2018-04-12T15:39:22.069Z,19.30
2018-04-12T15:41:50.534Z,11.23
2018-04-12T15:44:18.984Z,8.53
2018-04-12T15:46:47.476Z,13.20
2018-04-12T15:49:15.932Z,11.80
2018-04-12T15:51:44.377Z,9.47
2018-04-12T15:54:12.869Z,18.43
2018-04-12T15:56:41.369Z,9.73
2018-04-12T15:59:09.840Z,10.13
2018-04-12T16:01:38.345Z,9.93
2018-04-12T16:04:06.804Z,9.33
2018-04-12T16:06:35.270Z,9.83
2018-04-12T16:09:03.837Z,9.37
2018-04-12T16:11:32.282Z,13.13
2018-04-12T16:14:00.724Z,13.63
2018-04-12T16:16:29.187Z,10.80
2018-04-12T16:18:57.644Z,7.43
2018-04-12T16:21:26.139Z,12.23
2018-04-12T16:23:54.612Z,13.50
2018-04-12T16:26:23.115Z,19.20
2018-04-12T16:28:51.571Z,15.83
2018-04-12T16:31:20.089Z,15.30
2018-04-12T16:33:48.536Z,13.30
2018-04-12T16:36:17.017Z,11.07
2018-04-12T16:38:45.460Z,10.90
2018-04-12T16:41:13.956Z,8.47
2018-04-12T16:43:42.384Z,11.40
2018-04-12T16:46:10.893Z,12.87
2018-04-12T16:48:39.408Z,9.77
2018-04-12T16:51:07.875Z,7.07
2018-04-12T16:53:36.357Z,9.60
2018-04-12T16:56:04.858Z,10.77
2018-04-12T16:58:33.349Z,12.03
2018-04-12T17:01:01.804Z,12.87
2018-04-12T17:03:30.298Z,9.50
2018-04-12T17:05:58.744Z,10.23
2018-04-12T17:08:27.181Z,9.97
2018-04-12T17:10:55.665Z,8.57
2018-04-12T17:13:24.140Z,16.53
2018-04-12T17:15:52.595Z,9.33
2018-04-12T17:18:21.054Z,8.30
2018-04-12T17:20:49.528Z,13.87
2018-04-12T17:23:18.031Z,15.47
2018-04-12T17:25:46.531Z,13.60
2018-04-12T17:28:15.008Z,12.97
2018-04-12T17:30:43.472Z,21.63
2018-04-12T17:33:11.947Z,15.23
2018-04-12T17:35:40.411Z,12.27
2018-04-12T17:38:08.894Z,12.13
2018-04-12T17:40:37.340Z,13.93
2018-04-12T17:43:05.827Z,7.80
2018-04-12T17:45:35.132Z,10.13
2018-04-12T17:48:03.617Z,10.53
2018-04-12T17:50:32.068Z,9.50
2018-04-12T17:53:00.535Z,12.57
2018-04-12T17:55:28.953Z,8.90
2018-04-12T17:57:57.442Z,12.13
2018-04-12T18:00:25.937Z,12.60
2018-04-12T18:02:54.430Z,12.47
2018-04-12T18:05:22.885Z,9.50
2018-04-12T18:07:51.368Z,19.37
2018-04-12T18:10:19.841Z,13.30
2018-04-12T18:12:48.354Z,11.63
2018-04-12T18:15:16.803Z,8.73
2018-04-12T18:17:45.274Z,12.83
2018-04-12T18:20:13.772Z,11.93
2018-04-12T18:22:42.272Z,11.67
2018-04-12T18:25:10.713Z,9.80
2018-04-12T18:27:39.202Z,11.17
2018-04-12T18:30:07.704Z,8.87
2018-04-12T18:32:36.220Z,10.47
2018-04-12T18:35:04.666Z,11.50
2018-04-12T18:37:33.112Z,13.40
2018-04-12T18:40:01.585Z,9.03
2018-04-12T18:42:30.078Z,12.57
2018-04-12T18:44:58.520Z,13.13
2018-04-12T18:47:27.005Z,14.27
2018-04-12T18:49:55.502Z,12.83
2018-04-12T18:52:24.022Z,15.23
2018-04-12T18:54:52.515Z,11.13
2018-04-12T18:57:21.048Z,14.00
2018-04-12T18:59:49.537Z,13.23
2018-04-12T19:02:18.012Z,8.63
2018-04-12T19:04:46.467Z,20.57
2018-04-12T19:07:14.983Z,14.30
2018-04-12T19:09:43.460Z,14.23
2018-04-12T19:12:11.922Z,17.50
2018-04-12T19:14:40.408Z,21.57
2018-04-12T19:17:08.874Z,14.90
2018-04-12T19:19:37.368Z,11.90
2018-04-12T19:22:05.842Z,15.20
2018-04-12T19:24:34.296Z,11.03
2018-04-12T19:27:02.784Z,18.90
2018-04-12T19:29:31.238Z,16.27
2018-04-12T19:31:59.730Z,13.83
2018-04-12T19:34:28.158Z,13.73
2018-04-12T19:36:56.645Z,13.53
2018-04-12T19:39:25.100Z,12.03
2018-04-12T19:41:53.607Z,12.03
2018-04-12T19:44:22.086Z,16.70
2018-04-12T19:46:50.606Z,13.60
2018-04-12T19:49:19.059Z,13.33
2018-04-12T19:51:47.516Z,15.73
2018-04-12T19:54:16.034Z,14.33
2018-04-12T19:56:44.481Z,16.43
2018-04-12T19:59:12.972Z,13.03
2018-04-12T20:01:41.463Z,14.97
2018-04-12T20:04:09.903Z,12.47
2018-04-12T20:06:38.395Z,14.20
2018-04-12T20:09:06.852Z,12.83
2018-04-12T20:11:35.341Z,16.70
2018-04-12T20:14:03.838Z,15.07
2018-04-12T20:16:32.317Z,11.20
2018-04-12T20:19:00.794Z,19.27
2018-04-12T20:21:29.252Z,16.70
2018-04-12T20:23:57.740Z,12.27
2018-04-12T20:26:26.228Z,14.20
2018-04-12T20:28:54.717Z,15.97
2018-04-12T20:31:23.181Z,14.43
2018-04-12T20:33:51.686Z,16.50
2018-04-12T20:36:20.218Z,20.10
2018-04-12T20:38:48.797Z,10.17
2018-04-12T20:41:17.347Z,16.07
2018-04-12T20:43:45.941Z,19.53
2018-04-12T20:46:14.579Z,18.43
2018-04-12T20:48:43.183Z,14.87
2018-04-12T20:51:11.733Z,29.30
2018-04-12T20:53:41.333Z,23.17
2018-04-12T20:56:10.353Z,16.43
2018-04-12T20:58:38.930Z,15.93
2018-04-12T21:01:07.522Z,13.07
2018-04-12T21:03:35.964Z,12.80
2018-04-12T21:06:04.437Z,16.50
2018-04-12T21:08:32.924Z,11.13
2018-04-12T21:11:01.373Z,13.73
2018-04-12T21:13:30.332Z,14.80
2018-04-12T21:15:58.788Z,14.27
2018-04-12T21:18:27.268Z,14.57
2018-04-12T21:20:55.749Z,17.97
2018-04-12T21:23:24.202Z,13.87
2018-04-12T21:25:52.680Z,14.43
2018-04-12T21:28:21.138Z,12.53
2018-04-12T21:30:49.621Z,16.27
2018-04-12T21:33:18.072Z,12.17
2018-04-12T21:35:46.560Z,13.80
2018-04-12T21:38:15.020Z,13.17
2018-04-12T21:40:43.493Z,14.47
2018-04-12T21:43:12.000Z,11.77
2018-04-12T21:45:40.467Z,13.90
2018-04-12T21:48:08.945Z,11.27
2018-04-12T21:50:37.417Z,12.20
2018-04-12T21:53:05.884Z,12.77
2018-04-12T21:55:34.333Z,13.13
2018-04-12T21:58:02.829Z,13.43
2018-04-12T22:00:31.293Z,12.13
2018-04-12T22:02:59.838Z,12.47
2018-04-12T22:05:28.320Z,17.07
2018-04-12T22:07:56.828Z,13.43
2018-04-12T22:10:25.392Z,12.37
2018-04-12T22:12:53.913Z,15.40
2018-04-12T22:15:22.456Z,12.30
2018-04-12T22:17:50.948Z,14.37
2018-04-12T22:20:19.480Z,11.63
2018-04-12T22:22:47.970Z,14.60
2018-04-12T22:25:16.568Z,22.60
2018-04-12T22:27:45.084Z,13.83
2018-04-12T22:30:13.628Z,13.30
2018-04-12T22:32:42.144Z,13.27
2018-04-12T22:35:10.664Z,13.20
2018-04-12T22:37:39.189Z,15.37
2018-04-12T22:40:07.728Z,15.10
2018-04-12T22:42:36.338Z,14.30
2018-04-12T22:45:04.852Z,12.87
2018-04-12T22:47:33.338Z,14.93
2018-04-12T22:50:01.869Z,15.27
2018-04-12T22:52:30.406Z,13.13
2018-04-12T22:54:58.941Z,15.77
2018-04-12T22:57:27.478Z,13.57
2018-04-12T22:59:56.008Z,13.07
2018-04-12T23:02:24.488Z,12.53
2018-04-12T23:04:53.075Z,13.63
2018-04-12T23:07:21.656Z,13.40
2018-04-12T23:09:50.208Z,13.27
2018-04-12T23:12:18.728Z,14.27
2018-04-12T23:14:47.310Z,16.67
2018-04-12T23:17:15.818Z,14.60
2018-04-12T23:19:44.384Z,14.13
2018-04-12T23:22:12.919Z,14.10
2018-04-12T23:24:41.532Z,16.90
2018-04-12T23:27:10.113Z,14.13
2018-04-12T23:29:38.653Z,14.30
2018-04-12T23:32:07.216Z,14.00
2018-04-12T23:34:35.860Z,13.47
2018-04-12T23:37:04.437Z,14.53
2018-04-12T23:39:33.001Z,14.13
2018-04-12T23:42:01.540Z,16.27
2018-04-12T23:44:30.082Z,14.20
2018-04-12T23:46:58.640Z,13.77
2018-04-12T23:49:27.211Z,14.13
2018-04-12T23:51:55.769Z,14.80
2018-04-12T23:54:24.375Z,15.47
2018-04-12T23:56:52.948Z,14.20
2018-04-12T23:59:21.454Z,15.40
